Terminal Aerodrome Forecast
Issued by NWS

Home | Current Version | Previous Version | Graphics & Text | Print | Product List | Glossary On
Versions: 1 2 3 4 5 6 7 8 9 10 11 12
000
FTUS43 KGRB 221700
TAFATW
TAF
KATW 221722Z 2218/2318 29016G24KT P6SM SCT025 BKN040
      TEMPO 2218/2222 4SM -SHRASN BKN025
     FM222200 31014G22KT P6SM VCSH SCT030 BKN045
     FM230100 30009KT P6SM SCT035 BKN050
     FM231000 30008KT P6SM SCT035 SCT050
     FM231400 30011KT P6SM SCT035=

USA.gov is the U.S. government's official web portal to all federal, state and local government web resources and services.